sensor_id;sensor_type;location;lat;lon;timestamp;pressure;altitude;pressure_sealevel;temperature;humidity
13011;BME280;6786;57.632;11.962;2023-01-26T00:02:17;101167.59;;;18.80;41.48
13011;BME280;6786;57.632;11.962;2023-01-26T00:04:46;101159.66;;;18.79;41.48
13011;BME280;6786;57.632;11.962;2023-01-26T00:07:14;101161.34;;;18.80;41.40
13011;BME280;6786;57.632;11.962;2023-01-26T00:09:42;101165.97;;;18.78;41.47
13011;BME280;6786;57.632;11.962;2023-01-26T00:12:10;101160.63;;;18.78;41.47
13011;BME280;6786;57.632;11.962;2023-01-26T00:14:38;101164.78;;;18.82;41.41
13011;BME280;6786;57.632;11.962;2023-01-26T00:17:19;101163.06;;;18.81;41.59
13011;BME280;6786;57.632;11.962;2023-01-26T00:19:56;101166.59;;;18.81;41.61
13011;BME280;6786;57.632;11.962;2023-01-26T00:22:27;101159.41;;;18.82;41.44
13011;BME280;6786;57.632;11.962;2023-01-26T00:24:55;101144.34;;;18.70;41.51
13011;BME280;6786;57.632;11.962;2023-01-26T00:27:23;101154.56;;;18.76;41.42
13011;BME280;6786;57.632;11.962;2023-01-26T00:29:51;101150.16;;;18.75;41.38
13011;BME280;6786;57.632;11.962;2023-01-26T00:32:19;101168.41;;;18.81;41.49
13011;BME280;6786;57.632;11.962;2023-01-26T00:34:48;101168.41;;;18.81;41.43
13011;BME280;6786;57.632;11.962;2023-01-26T00:37:17;101163.06;;;18.81;41.41
13011;BME280;6786;57.632;11.962;2023-01-26T00:39:45;101164.03;;;18.80;41.50
13011;BME280;6786;57.632;11.962;2023-01-26T00:42:13;101169.41;;;18.80;41.41
13011;BME280;6786;57.632;11.962;2023-01-26T00:44:42;101166.97;;;18.77;41.55
13011;BME280;6786;57.632;11.962;2023-01-26T00:47:11;101168.41;;;18.81;41.56
13011;BME280;6786;57.632;11.962;2023-01-26T00:49:40;101173.06;;;18.79;41.65
13011;BME280;6786;57.632;11.962;2023-01-26T00:52:08;101172.94;;;18.80;41.54
13011;BME280;6786;57.632;11.962;2023-01-26T00:54:38;101141.88;;;18.56;41.42
13011;BME280;6786;57.632;11.962;2023-01-26T00:57:06;101179.97;;;18.81;41.56
13011;BME280;6786;57.632;11.962;2023-01-26T00:59:34;101173.75;;;18.81;41.58
13011;BME280;6786;57.632;11.962;2023-01-26T01:02:02;101174.88;;;18.78;41.74
13011;BME280;6786;57.632;11.962;2023-01-26T01:04:31;101168.41;;;18.81;41.58
13011;BME280;6786;57.632;11.962;2023-01-26T01:06:59;101164.03;;;18.80;41.55
13011;BME280;6786;57.632;11.962;2023-01-26T01:09:27;101153.19;;;18.81;41.59
13011;BME280;6786;57.632;11.962;2023-01-26T01:11:57;101143.59;;;18.79;41.49
13011;BME280;6786;57.632;11.962;2023-01-26T01:14:25;101118.28;;;18.61;41.57
13011;BME280;6786;57.632;11.962;2023-01-26T01:16:53;101146.97;;;18.81;41.52
13011;BME280;6786;57.632;11.962;2023-01-26T01:19:21;101146.28;;;18.79;41.43
13011;BME280;6786;57.632;11.962;2023-01-26T01:21:49;101146.16;;;18.80;41.59
13011;BME280;6786;57.632;11.962;2023-01-26T01:24:17;101139.56;;;18.73;41.55
13011;BME280;6786;57.632;11.962;2023-01-26T01:26:45;101154.06;;;18.82;41.47
13011;BME280;6786;57.632;11.962;2023-01-26T01:29:15;101156.88;;;18.80;41.48
13011;BME280;6786;57.632;11.962;2023-01-26T01:31:43;101162.09;;;18.82;41.50
13011;BME280;6786;57.632;11.962;2023-01-26T01:34:11;101163.06;;;18.81;41.44
13011;BME280;6786;57.632;11.962;2023-01-26T01:36:39;101157.94;;;18.78;41.46
13011;BME280;6786;57.632;11.962;2023-01-26T01:39:08;101170.38;;;18.79;41.52
13011;BME280;6786;57.632;11.962;2023-01-26T01:41:37;101173.75;;;18.81;41.50
13011;BME280;6786;57.632;11.962;2023-01-26T01:44:15;101175.72;;;18.79;41.67
13011;BME280;6786;57.632;11.962;2023-01-26T01:46:50;101168.66;;;18.78;41.61
13011;BME280;6786;57.632;11.962;2023-01-26T01:49:23;101166.09;;;18.76;41.61
13011;BME280;6786;57.632;11.962;2023-01-26T01:51:56;101157.94;;;18.78;41.56
13011;BME280;6786;57.632;11.962;2023-01-26T01:54:29;101158.19;;;18.75;41.74
13011;BME280;6786;57.632;11.962;2023-01-26T01:57:02;101143.59;;;18.79;41.49
13011;BME280;6786;57.632;11.962;2023-01-26T01:59:44;101148.97;;;18.79;41.54
13011;BME280;6786;57.632;11.962;2023-01-26T02:02:13;101148.97;;;18.79;41.56
13011;BME280;6786;57.632;11.962;2023-01-26T02:04:42;101159.78;;;18.77;41.58
13011;BME280;6786;57.632;11.962;2023-01-26T02:07:10;101156.00;;;18.80;41.48
13011;BME280;6786;57.632;11.962;2023-01-26T02:09:40;101166.72;;;18.80;41.54
13011;BME280;6786;57.632;11.962;2023-01-26T02:12:29;101155.25;;;18.78;41.62
13011;BME280;6786;57.632;11.962;2023-01-26T02:15:00;101149.19;;;18.76;41.39
13011;BME280;6786;57.632;11.962;2023-01-26T02:17:29;101150.91;;;18.77;41.66
13011;BME280;6786;57.632;11.962;2023-01-26T02:20:03;101145.28;;;18.80;41.60
13011;BME280;6786;57.632;11.962;2023-01-26T02:22:40;101145.28;;;18.80;41.64
13011;BME280;6786;57.632;11.962;2023-01-26T02:25:15;101130.47;;;18.65;41.57
13011;BME280;6786;57.632;11.962;2023-01-26T02:27:48;101147.22;;;18.78;41.60
13011;BME280;6786;57.632;11.962;2023-01-26T02:30:16;101145.53;;;18.77;41.57
13011;BME280;6786;57.632;11.962;2023-01-26T02:32:45;101146.16;;;18.80;41.49
13011;BME280;6786;57.632;11.962;2023-01-26T02:35:13;101146.97;;;18.81;41.44
13011;BME280;6786;57.632;11.962;2023-01-26T02:37:42;101136.53;;;18.78;41.38
13011;BME280;6786;57.632;11.962;2023-01-26T02:40:15;101138.00;;;18.82;41.48
13011;BME280;6786;57.632;11.962;2023-01-26T02:42:48;101138.00;;;18.82;41.48
13011;BME280;6786;57.632;11.962;2023-01-26T02:45:20;101123.25;;;18.76;41.51
13011;BME280;6786;57.632;11.962;2023-01-26T02:47:49;101136.28;;;18.81;41.61
13011;BME280;6786;57.632;11.962;2023-01-26T02:50:17;101139.94;;;18.80;41.49
13011;BME280;6786;57.632;11.962;2023-01-26T02:52:44;101134.56;;;18.80;41.64
13011;BME280;6786;57.632;11.962;2023-01-26T02:55:12;101132.28;;;18.75;41.56
13011;BME280;6786;57.632;11.962;2023-01-26T02:57:51;101139.06;;;18.79;41.50
13011;BME280;6786;57.632;11.962;2023-01-26T03:00:21;101150.66;;;18.80;41.52
13011;BME280;6786;57.632;11.962;2023-01-26T03:02:50;101106.72;;;18.60;41.50
13011;BME280;6786;57.632;11.962;2023-01-26T03:05:19;101150.66;;;18.80;41.49
13011;BME280;6786;57.632;11.962;2023-01-26T03:07:47;101156.00;;;18.80;41.48
13011;BME280;6786;57.632;11.962;2023-01-26T03:10:16;101152.34;;;18.81;41.53
13011;BME280;6786;57.632;11.962;2023-01-26T03:12:44;101147.97;;;18.80;41.48
13011;BME280;6786;57.632;11.962;2023-01-26T03:15:14;101161.34;;;18.80;41.55
13011;BME280;6786;57.632;11.962;2023-01-26T03:18:03;101102.34;;;18.48;41.60
13011;BME280;6786;57.632;11.962;2023-01-26T03:20:49;101130.69;;;18.62;41.65
13011;BME280;6786;57.632;11.962;2023-01-26T03:23:35;101159.66;;;18.79;41.45
13011;BME280;6786;57.632;11.962;2023-01-26T03:26:21;101158.81;;;18.78;41.61
13011;BME280;6786;57.632;11.962;2023-01-26T03:29:06;101168.66;;;18.78;41.42
13011;BME280;6786;57.632;11.962;2023-01-26T03:31:36;101164.16;;;18.78;41.54
13011;BME280;6786;57.632;11.962;2023-01-26T03:34:04;101163.31;;;18.78;41.45
13011;BME280;6786;57.632;11.962;2023-01-26T03:36:32;101159.91;;;18.76;41.54
13011;BME280;6786;57.632;11.962;2023-01-26T03:39:01;101172.31;;;18.77;41.52
13011;BME280;6786;57.632;11.962;2023-01-26T03:41:29;101168.66;;;18.78;41.43
13011;BME280;6786;57.632;11.962;2023-01-26T03:44:14;101179.38;;;18.78;41.44
13011;BME280;6786;57.632;11.962;2023-01-26T03:47:01;101174.00;;;18.78;41.25
13011;BME280;6786;57.632;11.962;2023-01-26T03:49:46;101095.63;;;18.32;41.37
13011;BME280;6786;57.632;11.962;2023-01-26T03:52:32;101176.69;;;18.78;41.53
13011;BME280;6786;57.632;11.962;2023-01-26T03:55:18;101176.69;;;18.78;41.45
13011;BME280;6786;57.632;11.962;2023-01-26T03:58:03;101175.00;;;18.77;41.49
13011;BME280;6786;57.632;11.962;2023-01-26T04:00:33;101169.63;;;18.77;41.40
13011;BME280;6786;57.632;11.962;2023-01-26T04:03:02;101171.44;;;18.76;41.56
13011;BME280;6786;57.632;11.962;2023-01-26T04:05:48;101179.59;;;18.75;41.43
13011;BME280;6786;57.632;11.962;2023-01-26T04:08:42;101175.13;;;18.75;41.44
13011;BME280;6786;57.632;11.962;2023-01-26T04:11:10;101174.25;;;18.75;41.50
13011;BME280;6786;57.632;11.962;2023-01-26T04:13:38;101176.81;;;18.76;41.41
13011;BME280;6786;57.632;11.962;2023-01-26T04:16:24;101165.25;;;18.76;41.37
13011;BME280;6786;57.632;11.962;2023-01-26T04:19:11;101169.63;;;18.77;41.41
13011;BME280;6786;57.632;11.962;2023-01-26T04:21:58;101170.63;;;18.76;41.38
13011;BME280;6786;57.632;11.962;2023-01-26T04:24:26;101183.03;;;18.77;41.35
13011;BME280;6786;57.632;11.962;2023-01-26T04:26:54;101172.31;;;18.77;41.43
13011;BME280;6786;57.632;11.962;2023-01-26T04:29:22;101178.53;;;18.77;41.41
13011;BME280;6786;57.632;11.962;2023-01-26T04:31:50;101163.53;;;18.75;41.35
13011;BME280;6786;57.632;11.962;2023-01-26T04:34:20;101172.56;;;18.74;41.38
13011;BME280;6786;57.632;11.962;2023-01-26T04:36:48;101171.44;;;18.76;41.43
13011;BME280;6786;57.632;11.962;2023-01-26T04:39:16;101165.50;;;18.73;41.37
13011;BME280;6786;57.632;11.962;2023-01-26T04:41:45;101184.97;;;18.75;41.29
13011;BME280;6786;57.632;11.962;2023-01-26T04:44:13;101108.78;;;18.24;41.45
13011;BME280;6786;57.632;11.962;2023-01-26T04:46:42;101203.72;;;18.75;41.28
13011;BME280;6786;57.632;11.962;2023-01-26T04:49:11;101193.00;;;18.75;41.49
13011;BME280;6786;57.632;11.962;2023-01-26T04:51:41;101192.03;;;18.76;41.26
13011;BME280;6786;57.632;11.962;2023-01-26T04:54:09;101185.44;;;18.69;41.43
13011;BME280;6786;57.632;11.962;2023-01-26T04:56:37;101199.09;;;18.77;41.36
13011;BME280;6786;57.632;11.962;2023-01-26T04:59:06;101204.44;;;18.77;41.28
13011;BME280;6786;57.632;11.962;2023-01-26T05:01:34;101195.44;;;18.78;41.28
13011;BME280;6786;57.632;11.962;2023-01-26T05:04:04;101193.00;;;18.75;41.37
13011;BME280;6786;57.632;11.962;2023-01-26T05:06:33;101179.97;;;18.70;41.25
13011;BME280;6786;57.632;11.962;2023-01-26T05:09:03;101177.66;;;18.77;41.31
13011;BME280;6786;57.632;11.962;2023-01-26T05:11:31;101188.38;;;18.77;41.35
13011;BME280;6786;57.632;11.962;2023-01-26T05:13:59;101192.88;;;18.76;41.24
13011;BME280;6786;57.632;11.962;2023-01-26T05:16:27;101202.75;;;18.76;41.29
13011;BME280;6786;57.632;11.962;2023-01-26T05:18:56;101206.16;;;18.78;41.22
13011;BME280;6786;57.632;11.962;2023-01-26T05:21:24;101222.22;;;18.78;41.23
13011;BME280;6786;57.632;11.962;2023-01-26T05:23:53;101186.44;;;18.57;41.17
13011;BME280;6786;57.632;11.962;2023-01-26T05:26:23;101225.63;;;18.80;41.17
13011;BME280;6786;57.632;11.962;2023-01-26T05:28:51;101226.63;;;18.79;41.09
13011;BME280;6786;57.632;11.962;2023-01-26T05:31:19;101222.94;;;18.80;41.27
13011;BME280;6786;57.632;11.962;2023-01-26T05:33:47;101227.09;;;18.84;41.28
13011;BME280;6786;57.632;11.962;2023-01-26T05:36:15;101232.19;;;18.87;41.35
13011;BME280;6786;57.632;11.962;2023-01-26T05:38:43;101220.53;;;18.88;41.30
13011;BME280;6786;57.632;11.962;2023-01-26T05:41:11;101221.47;;;18.87;41.38
13011;BME280;6786;57.632;11.962;2023-01-26T05:43:41;101200.44;;;18.71;41.25
13011;BME280;6786;57.632;11.962;2023-01-26T05:46:09;101229.75;;;18.84;41.34
13011;BME280;6786;57.632;11.962;2023-01-26T05:48:37;101230.75;;;18.83;41.33
13011;BME280;6786;57.632;11.962;2023-01-26T05:51:06;101229.06;;;18.82;41.20
13011;BME280;6786;57.632;11.962;2023-01-26T05:53:34;101239.75;;;18.82;41.14
13011;BME280;6786;57.632;11.962;2023-01-26T05:56:02;101181.06;;;18.46;41.21
13011;BME280;6786;57.632;11.962;2023-01-26T05:58:30;101247.06;;;18.80;41.21
13011;BME280;6786;57.632;11.962;2023-01-26T06:01:02;101252.41;;;18.80;41.32
13011;BME280;6786;57.632;11.962;2023-01-26T06:03:31;101254.97;;;18.81;41.24
13011;BME280;6786;57.632;11.962;2023-01-26T06:05:59;101254.34;;;18.78;41.19
13011;BME280;6786;57.632;11.962;2023-01-26T06:08:27;101264.81;;;18.81;41.08
13011;BME280;6786;57.632;11.962;2023-01-26T06:10:58;101273.84;;;18.80;41.10
13011;BME280;6786;57.632;11.962;2023-01-26T06:13:26;101272.13;;;18.79;41.18
13011;BME280;6786;57.632;11.962;2023-01-26T06:15:54;101265.91;;;18.78;41.20
13011;BME280;6786;57.632;11.962;2023-01-26T06:18:23;101272.13;;;18.79;41.13
13011;BME280;6786;57.632;11.962;2023-01-26T06:20:51;101282.84;;;18.79;41.14
13011;BME280;6786;57.632;11.962;2023-01-26T06:23:19;101270.41;;;18.78;41.13
13011;BME280;6786;57.632;11.962;2023-01-26T06:25:48;101285.53;;;18.79;41.02
13011;BME280;6786;57.632;11.962;2023-01-26T06:28:17;101292.69;;;18.78;41.10
13011;BME280;6786;57.632;11.962;2023-01-26T06:30:46;101293.56;;;18.79;41.07
13011;BME280;6786;57.632;11.962;2023-01-26T06:33:14;101298.91;;;18.79;41.06
13011;BME280;6786;57.632;11.962;2023-01-26T06:35:43;101290.88;;;18.79;41.15
13011;BME280;6786;57.632;11.962;2023-01-26T06:38:12;101278.69;;;18.64;41.19
13011;BME280;6786;57.632;11.962;2023-01-26T06:40:41;101290.16;;;18.77;41.05
13011;BME280;6786;57.632;11.962;2023-01-26T06:43:09;101304.50;;;18.76;41.03
13011;BME280;6786;57.632;11.962;2023-01-26T06:45:37;101304.50;;;18.76;41.00
13011;BME280;6786;57.632;11.962;2023-01-26T06:48:05;101304.50;;;18.76;41.11
13011;BME280;6786;57.632;11.962;2023-01-26T06:50:34;101312.53;;;18.76;41.13
13011;BME280;6786;57.632;11.962;2023-01-26T06:53:25;101285.97;;;18.62;41.16
13011;BME280;6786;57.632;11.962;2023-01-26T06:55:56;101325.06;;;18.75;41.01
13011;BME280;6786;57.632;11.962;2023-01-26T06:58:24;101325.94;;;18.76;41.07
13011;BME280;6786;57.632;11.962;2023-01-26T07:00:54;101328.63;;;18.76;40.94
13011;BME280;6786;57.632;11.962;2023-01-26T07:03:22;101326.88;;;18.75;41.08
13011;BME280;6786;57.632;11.962;2023-01-26T07:05:51;101331.28;;;18.76;40.96
13011;BME280;6786;57.632;11.962;2023-01-26T07:08:20;101342.84;;;18.76;41.02
13011;BME280;6786;57.632;11.962;2023-01-26T07:10:48;101342.25;;;18.84;40.93
13011;BME280;6786;57.632;11.962;2023-01-26T07:13:17;101359.06;;;18.86;40.80
13011;BME280;6786;57.632;11.962;2023-01-26T07:15:45;101364.19;;;18.89;40.60
13011;BME280;6786;57.632;11.962;2023-01-26T07:18:13;101364.19;;;18.89;40.77
13011;BME280;6786;57.632;11.962;2023-01-26T07:20:41;101366.13;;;18.87;40.67
13011;BME280;6786;57.632;11.962;2023-01-26T07:23:09;101371.22;;;18.90;40.75
13011;BME280;6786;57.632;11.962;2023-01-26T07:25:42;101383.69;;;18.91;40.71
13011;BME280;6786;57.632;11.962;2023-01-26T07:28:10;101391.84;;;18.89;40.61
13011;BME280;6786;57.632;11.962;2023-01-26T07:30:38;101395.34;;;18.90;40.64
13011;BME280;6786;57.632;11.962;2023-01-26T07:33:06;101398.25;;;18.87;40.79
13011;BME280;6786;57.632;11.962;2023-01-26T07:35:34;101405.34;;;18.88;40.64
13011;BME280;6786;57.632;11.962;2023-01-26T07:38:02;101412.41;;;18.89;40.77
13011;BME280;6786;57.632;11.962;2023-01-26T07:40:31;101426.78;;;18.88;40.69
13011;BME280;6786;57.632;11.962;2023-01-26T07:43:01;101423.09;;;18.89;40.64
13011;BME280;6786;57.632;11.962;2023-01-26T07:45:29;101423.09;;;18.89;40.72
13011;BME280;6786;57.632;11.962;2023-01-26T07:47:58;101425.78;;;18.89;40.65
13011;BME280;6786;57.632;11.962;2023-01-26T07:50:26;101438.31;;;18.88;40.64
13011;BME280;6786;57.632;11.962;2023-01-26T07:52:54;101437.47;;;18.88;40.77
13011;BME280;6786;57.632;11.962;2023-01-26T07:55:22;101425.50;;;18.81;40.71
13011;BME280;6786;57.632;11.962;2023-01-26T07:57:52;101442.84;;;18.88;40.76
13011;BME280;6786;57.632;11.962;2023-01-26T08:00:21;101444.53;;;18.89;40.69
13011;BME280;6786;57.632;11.962;2023-01-26T08:02:50;101448.19;;;18.88;40.86
13011;BME280;6786;57.632;11.962;2023-01-26T08:05:18;101449.03;;;18.88;40.63
13011;BME280;6786;57.632;11.962;2023-01-26T08:07:46;101453.56;;;18.88;40.66
13011;BME280;6786;57.632;11.962;2023-01-26T08:10:15;101453.56;;;18.88;40.69
13011;BME280;6786;57.632;11.962;2023-01-26T08:12:43;101414.03;;;18.68;40.72
13011;BME280;6786;57.632;11.962;2023-01-26T08:15:12;101448.19;;;18.88;40.62
13011;BME280;6786;57.632;11.962;2023-01-26T08:17:41;101461.69;;;18.86;40.58
13011;BME280;6786;57.632;11.962;2023-01-26T08:20:10;101467.88;;;18.87;40.60
13011;BME280;6786;57.632;11.962;2023-01-26T08:22:40;101468.88;;;18.86;40.72
13011;BME280;6786;57.632;11.962;2023-01-26T08:25:08;101478.59;;;18.87;40.64
13011;BME280;6786;57.632;11.962;2023-01-26T08:27:36;101476.69;;;18.89;40.68
13011;BME280;6786;57.632;11.962;2023-01-26T08:30:06;101482.03;;;18.89;40.67
13011;BME280;6786;57.632;11.962;2023-01-26T08:32:34;101480.34;;;18.88;40.55
13011;BME280;6786;57.632;11.962;2023-01-26T08:35:04;101486.53;;;18.88;40.65
13011;BME280;6786;57.632;11.962;2023-01-26T08:37:32;101482.28;;;18.86;40.61
13011;BME280;6786;57.632;11.962;2023-01-26T08:40:01;101485.69;;;18.88;40.67
13011;BME280;6786;57.632;11.962;2023-01-26T08:42:29;101495.66;;;18.86;40.52
13011;BME280;6786;57.632;11.962;2023-01-26T08:44:57;101493.84;;;18.86;40.65
13011;BME280;6786;57.632;11.962;2023-01-26T08:47:25;101495.53;;;18.87;40.66
13011;BME280;6786;57.632;11.962;2023-01-26T08:49:53;101497.34;;;18.87;40.65
13011;BME280;6786;57.632;11.962;2023-01-26T08:52:22;101505.38;;;18.87;40.72
13011;BME280;6786;57.632;11.962;2023-01-26T08:54:50;101516.09;;;18.87;40.60
13011;BME280;6786;57.632;11.962;2023-01-26T08:57:18;101527.69;;;18.87;40.58
13011;BME280;6786;57.632;11.962;2023-01-26T08:59:47;101533.91;;;18.88;40.51
13011;BME280;6786;57.632;11.962;2023-01-26T09:02:15;101528.38;;;18.78;40.71
13011;BME280;6786;57.632;11.962;2023-01-26T09:04:43;101541.94;;;18.88;40.57
13011;BME280;6786;57.632;11.962;2023-01-26T09:07:11;101536.59;;;18.88;40.74
13011;BME280;6786;57.632;11.962;2023-01-26T09:09:41;101539.50;;;18.85;40.61
13011;BME280;6786;57.632;11.962;2023-01-26T09:12:09;101542.88;;;18.87;40.71
13011;BME280;6786;57.632;11.962;2023-01-26T09:14:37;101546.53;;;18.86;40.59
13011;BME280;6786;57.632;11.962;2023-01-26T09:17:06;101532.19;;;18.87;40.52
13011;BME280;6786;57.632;11.962;2023-01-26T09:19:34;101537.75;;;18.84;40.60
13011;BME280;6786;57.632;11.962;2023-01-26T09:22:02;101541.19;;;18.86;40.57
13011;BME280;6786;57.632;11.962;2023-01-26T09:24:31;101547.41;;;18.86;40.66
13011;BME280;6786;57.632;11.962;2023-01-26T09:27:00;101535.84;;;18.86;40.60
13011;BME280;6786;57.632;11.962;2023-01-26T09:29:28;101547.53;;;18.85;40.68
13011;BME280;6786;57.632;11.962;2023-01-26T09:31:56;101541.41;;;18.83;40.69
13011;BME280;6786;57.632;11.962;2023-01-26T09:34:25;101554.59;;;18.86;40.68
13011;BME280;6786;57.632;11.962;2023-01-26T09:36:54;101553.59;;;18.87;40.70
13011;BME280;6786;57.632;11.962;2023-01-26T09:39:22;101552.78;;;18.86;40.59
13011;BME280;6786;57.632;11.962;2023-01-26T09:42:11;101561.63;;;18.87;40.63
13011;BME280;6786;57.632;11.962;2023-01-26T09:44:49;101572.47;;;18.85;40.67
13011;BME280;6786;57.632;11.962;2023-01-26T09:47:22;101571.63;;;18.85;40.65
13011;BME280;6786;57.632;11.962;2023-01-26T09:49:57;101579.66;;;18.85;40.56
13011;BME280;6786;57.632;11.962;2023-01-26T09:52:29;101585.03;;;18.85;40.68
13011;BME280;6786;57.632;11.962;2023-01-26T09:55:02;101595.75;;;18.85;40.57
13011;BME280;6786;57.632;11.962;2023-01-26T09:57:35;101598.41;;;18.85;40.49
13011;BME280;6786;57.632;11.962;2023-01-26T10:00:06;101601.09;;;18.85;40.71
13011;BME280;6786;57.632;11.962;2023-01-26T10:02:51;101581.47;;;18.84;40.64
13011;BME280;6786;57.632;11.962;2023-01-26T10:05:29;101585.97;;;18.84;40.60
13011;BME280;6786;57.632;11.962;2023-01-26T10:07:59;101585.84;;;18.85;40.63
13011;BME280;6786;57.632;11.962;2023-01-26T10:10:31;101590.50;;;18.83;40.57
13011;BME280;6786;57.632;11.962;2023-01-26T10:13:03;101603.78;;;18.85;40.57
13011;BME280;6786;57.632;11.962;2023-01-26T10:15:34;101603.78;;;18.85;40.56
13011;BME280;6786;57.632;11.962;2023-01-26T10:18:06;101613.63;;;18.84;40.53
13011;BME280;6786;57.632;11.962;2023-01-26T10:20:38;101561.56;;;18.52;40.67
13011;BME280;6786;57.632;11.962;2023-01-26T10:23:13;101577.81;;;18.62;40.65
13011;BME280;6786;57.632;11.962;2023-01-26T10:25:43;101607.41;;;18.84;40.49
13011;BME280;6786;57.632;11.962;2023-01-26T10:28:16;101607.41;;;18.84;40.66
13011;BME280;6786;57.632;11.962;2023-01-26T10:30:46;101614.50;;;18.85;40.71
13011;BME280;6786;57.632;11.962;2023-01-26T10:33:19;101609.34;;;18.82;40.49
13011;BME280;6786;57.632;11.962;2023-01-26T10:35:48;101614.50;;;18.85;40.56
13011;BME280;6786;57.632;11.962;2023-01-26T10:38:26;101609.13;;;18.85;40.55
13011;BME280;6786;57.632;11.962;2023-01-26T10:40:55;101616.41;;;18.83;40.60
13011;BME280;6786;57.632;11.962;2023-01-26T10:43:27;101614.72;;;18.82;40.52
13011;BME280;6786;57.632;11.962;2023-01-26T10:45:55;101623.47;;;18.84;40.64
13011;BME280;6786;57.632;11.962;2023-01-26T10:48:24;101619.22;;;18.81;40.70
13011;BME280;6786;57.632;11.962;2023-01-26T10:50:53;101628.81;;;18.84;40.52
13011;BME280;6786;57.632;11.962;2023-01-26T10:53:23;101630.56;;;18.85;40.62
13011;BME280;6786;57.632;11.962;2023-01-26T10:55:59;101646.63;;;18.85;40.57
13011;BME280;6786;57.632;11.962;2023-01-26T10:58:42;101642.22;;;18.84;40.60
13011;BME280;6786;57.632;11.962;2023-01-26T11:01:12;101644.06;;;18.83;40.63
13011;BME280;6786;57.632;11.962;2023-01-26T11:06:26;101641.94;;;18.76;40.50
13011;BME280;6786;57.632;11.962;2023-01-26T11:09:07;101656.69;;;18.81;40.58
13011;BME280;6786;57.632;11.962;2023-01-26T11:11:36;101657.78;;;18.79;40.52
13011;BME280;6786;57.632;11.962;2023-01-26T11:14:14;101661.19;;;18.81;40.54
13011;BME280;6786;57.632;11.962;2023-01-26T11:16:47;101664.63;;;18.83;40.47
13011;BME280;6786;57.632;11.962;2023-01-26T11:19:31;101651.03;;;18.73;40.67
13011;BME280;6786;57.632;11.962;2023-01-26T11:22:05;101680.69;;;18.83;40.64
13011;BME280;6786;57.632;11.962;2023-01-26T11:24:41;101694.09;;;18.83;40.60
13011;BME280;6786;57.632;11.962;2023-01-26T11:27:25;101691.41;;;18.83;40.67
13011;BME280;6786;57.632;11.962;2023-01-26T11:32:52;101668.72;;;18.76;40.56
13011;BME280;6786;57.632;11.962;2023-01-26T11:35:29;101680.69;;;18.83;40.46
13011;BME280;6786;57.632;11.962;2023-01-26T11:38:08;101679.84;;;18.82;40.53
13011;BME280;6786;57.632;11.962;2023-01-26T11:40:46;101690.53;;;18.82;40.53
13011;BME280;6786;57.632;11.962;2023-01-26T11:43:29;101673.63;;;18.82;40.48
13011;BME280;6786;57.632;11.962;2023-01-26T11:46:23;101684.34;;;18.82;40.52
13011;BME280;6786;57.632;11.962;2023-01-26T11:49:02;101684.34;;;18.82;40.49
13011;BME280;6786;57.632;11.962;2023-01-26T11:51:46;101679.22;;;18.79;40.58
13011;BME280;6786;57.632;11.962;2023-01-26T11:54:36;101679.00;;;18.82;40.50
13011;BME280;6786;57.632;11.962;2023-01-26T11:57:16;101682.63;;;18.81;40.48
13011;BME280;6786;57.632;11.962;2023-01-26T11:59:50;101648.63;;;18.58;40.43
13011;BME280;6786;57.632;11.962;2023-01-26T12:02:27;101676.88;;;18.74;40.46
13011;BME280;6786;57.632;11.962;2023-01-26T12:04:59;101680.91;;;18.80;40.55
13011;BME280;6786;57.632;11.962;2023-01-26T12:07:39;101681.78;;;18.80;40.50
13011;BME280;6786;57.632;11.962;2023-01-26T12:10:21;101692.38;;;18.82;40.50
13011;BME280;6786;57.632;11.962;2023-01-26T12:12:54;101695.91;;;18.82;40.41
13011;BME280;6786;57.632;11.962;2023-01-26T12:15:28;101695.06;;;18.82;40.44
13011;BME280;6786;57.632;11.962;2023-01-26T12:18:05;101710.16;;;18.83;40.53
13011;BME280;6786;57.632;11.962;2023-01-26T12:20:40;101658.28;;;18.48;40.56
13011;BME280;6786;57.632;11.962;2023-01-26T12:23:12;101707.47;;;18.83;40.59
13011;BME280;6786;57.632;11.962;2023-01-26T12:25:46;101712.84;;;18.83;40.39
13011;BME280;6786;57.632;11.962;2023-01-26T12:28:20;101719.91;;;18.84;40.37
13011;BME280;6786;57.632;11.962;2023-01-26T12:30:54;101720.13;;;18.81;40.48
13011;BME280;6786;57.632;11.962;2023-01-26T12:33:27;101700.75;;;18.65;40.38
13011;BME280;6786;57.632;11.962;2023-01-26T12:36:07;101730.59;;;18.84;40.43
13011;BME280;6786;57.632;11.962;2023-01-26T12:38:54;101658.94;;;18.39;40.45
13011;BME280;6786;57.632;11.962;2023-01-26T12:41:34;101728.91;;;18.83;40.48
13011;BME280;6786;57.632;11.962;2023-01-26T12:44:20;101722.69;;;18.82;40.28
13011;BME280;6786;57.632;11.962;2023-01-26T12:46:55;101728.03;;;18.82;40.44
13011;BME280;6786;57.632;11.962;2023-01-26T12:49:29;101664.69;;;18.45;40.44
13011;BME280;6786;57.632;11.962;2023-01-26T12:52:06;101730.72;;;18.82;40.30
13011;BME280;6786;57.632;11.962;2023-01-26T12:54:39;101727.22;;;18.82;40.40
13011;BME280;6786;57.632;11.962;2023-01-26T12:57:12;101732.56;;;18.82;40.25
13011;BME280;6786;57.632;11.962;2023-01-26T12:59:42;101730.81;;;18.81;40.46
13011;BME280;6786;57.632;11.962;2023-01-26T13:02:23;101744.97;;;18.83;40.28
13011;BME280;6786;57.632;11.962;2023-01-26T13:04:53;101746.69;;;18.84;40.34
13011;BME280;6786;57.632;11.962;2023-01-26T13:07:31;101750.34;;;18.83;40.18
13011;BME280;6786;57.632;11.962;2023-01-26T13:10:42;101731.47;;;18.72;40.26
13011;BME280;6786;57.632;11.962;2023-01-26T13:13:28;101739.41;;;18.73;40.19
13011;BME280;6786;57.632;11.962;2023-01-26T13:16:31;101761.06;;;18.83;40.31
13011;BME280;6786;57.632;11.962;2023-01-26T13:18:59;101764.72;;;18.82;40.16
13011;BME280;6786;57.632;11.962;2023-01-26T13:21:42;101766.41;;;18.83;40.26